Time;durP1;ratioP1;P1;durP2;ratioP2;P2;SDS_P1;SDS_P2;PMS_P1;PMS_P2;Temp;Humidity;BMP_temperature;BMP_pressure;BME280_temperature;BME280_humidity;BME280_pressure;Samples;Min_cycle;Max_cycle;Signal;HPM_P1;HPM_P2
2022/10/28 00:01:06;;;;;;;13.60;5.20;;;;;;;;;;5030420;28;20088;-74
2022/10/28 00:03:32;;;;;;;16.23;4.47;;;;;;;;;;5031921;28;20018;-73
2022/10/28 00:06:01;;;;;;;10.80;3.58;;;;;;;;;;5032147;28;20013;-73
2022/10/28 00:08:27;;;;;;;10.20;4.78;;;;;;;;;;5031275;28;20028;-73
2022/10/28 00:10:59;;;;;;;18.35;5.13;;;;;;;;;;5031327;28;20018;-74
2022/10/28 00:13:25;;;;;;;19.02;3.85;;;;;;;;;;5031992;28;20063;-74
2022/10/28 00:15:50;;;;;;;8.47;4.33;;;;;;;;;;5031254;28;20724;-78
2022/10/28 00:18:15;;;;;;;12.07;5.10;;;;;;;;;;5029216;28;20491;-74
2022/10/28 00:20:40;;;;;;;18.17;5.43;;;;;;;;;;5031724;28;20275;-74
2022/10/28 00:23:05;;;;;;;7.73;3.93;;;;;;;;;;5031413;28;20608;-73
2022/10/28 00:25:31;;;;;;;10.03;4.57;;;;;;;;;;5035035;28;20685;-73
2022/10/28 00:27:56;;;;;;;15.03;5.40;;;;;;;;;;5035019;28;20279;-73
2022/10/28 00:30:21;;;;;;;9.97;4.50;;;;;;;;;;5030560;28;20253;-73
2022/10/28 00:32:46;;;;;;;8.13;4.72;;;;;;;;;;5032678;28;20418;-73
2022/10/28 00:35:12;;;;;;;16.52;4.07;;;;;;;;;;5034573;28;20041;-73
2022/10/28 00:37:37;;;;;;;9.63;4.57;;;;;;;;;;5034777;28;20087;-73
2022/10/28 00:40:02;;;;;;;11.07;4.57;;;;;;;;;;5035809;28;20780;-72
2022/10/28 00:42:27;;;;;;;8.93;4.57;;;;;;;;;;5035069;28;20283;-72
2022/10/28 00:44:54;;;;;;;10.77;4.57;;;;;;;;;;5035403;28;20018;-73
2022/10/28 00:47:22;;;;;;;10.05;4.93;;;;;;;;;;5037087;28;20366;-73
2022/10/28 00:49:49;;;;;;;15.32;4.68;;;;;;;;;;5034444;28;20013;-73
2022/10/28 00:52:16;;;;;;;10.98;5.03;;;;;;;;;;5034616;28;20053;-72
2022/10/28 00:54:42;;;;;;;10.75;4.45;;;;;;;;;;5022667;28;20021;-72
2022/10/28 00:57:10;;;;;;;9.82;4.65;;;;;;;;;;5034796;28;20029;-72
2022/10/28 00:59:37;;;;;;;10.25;4.25;;;;;;;;;;5034745;28;20028;-72
2022/10/28 01:02:04;;;;;;;7.45;4.38;;;;;;;;;;5033526;28;20477;-72
2022/10/28 01:04:29;;;;;;;10.98;4.88;;;;;;;;;;5034109;28;20028;-72
2022/10/28 01:06:54;;;;;;;17.80;4.85;;;;;;;;;;5034524;28;20017;-72
2022/10/28 01:09:20;;;;;;;12.30;4.13;;;;;;;;;;5034059;28;20052;-72
2022/10/28 01:11:45;;;;;;;8.85;4.18;;;;;;;;;;5034205;28;20056;-72
2022/10/28 01:14:15;;;;;;;9.93;4.55;;;;;;;;;;5032828;28;20108;-71
2022/10/28 01:16:51;;;;;;;9.50;4.82;;;;;;;;;;5033910;28;20037;-72
2022/10/28 01:19:31;;;;;;;22.50;5.30;;;;;;;;;;5033549;28;20025;-71
2022/10/28 01:21:59;;;;;;;11.35;4.22;;;;;;;;;;5033715;28;20044;-72
2022/10/28 01:24:24;;;;;;;9.95;4.38;;;;;;;;;;5034147;28;20013;-74
2022/10/28 01:26:49;;;;;;;13.27;4.70;;;;;;;;;;5031866;28;20448;-74
2022/10/28 01:29:33;;;;;;;16.70;5.20;;;;;;;;;;5034290;28;20025;-72
2022/10/28 01:32:04;;;;;;;10.32;5.32;;;;;;;;;;5033194;28;20033;-72
2022/10/28 01:34:36;;;;;;;13.25;5.07;;;;;;;;;;5033833;28;20460;-72
2022/10/28 01:37:24;;;;;;;10.15;4.80;;;;;;;;;;5027771;28;20009;-72
2022/10/28 01:39:52;;;;;;;12.98;5.38;;;;;;;;;;5033757;28;20014;-72
2022/10/28 01:42:20;;;;;;;13.15;4.03;;;;;;;;;;5034682;28;20021;-72
2022/10/28 01:44:50;;;;;;;11.70;4.57;;;;;;;;;;5033954;28;20100;-72
2022/10/28 01:47:21;;;;;;;7.75;4.05;;;;;;;;;;5033587;28;20017;-72
2022/10/28 01:49:50;;;;;;;10.30;4.78;;;;;;;;;;5033551;28;20017;-73
2022/10/28 01:52:17;;;;;;;13.18;4.75;;;;;;;;;;5033772;28;20013;-72
2022/10/28 01:54:44;;;;;;;8.40;4.53;;;;;;;;;;5033053;28;20132;-73
2022/10/28 01:57:11;;;;;;;8.02;4.13;;;;;;;;;;5032913;28;20502;-72
2022/10/28 01:59:37;;;;;;;8.25;4.90;;;;;;;;;;5033650;28;20021;-73
2022/10/28 02:02:02;;;;;;;9.13;4.82;;;;;;;;;;5033558;28;20486;-72
2022/10/28 02:04:27;;;;;;;10.13;4.75;;;;;;;;;;5017820;28;20025;-72
2022/10/28 02:06:54;;;;;;;12.83;4.40;;;;;;;;;;5033009;28;20104;-72
2022/10/28 02:09:31;;;;;;;10.93;4.53;;;;;;;;;;5014162;28;21164;-73
2022/10/28 02:12:05;;;;;;;12.70;4.85;;;;;;;;;;5029082;28;20095;-72
2022/10/28 02:14:46;;;;;;;11.32;4.53;;;;;;;;;;5033817;28;20096;-72
2022/10/28 02:17:28;;;;;;;8.75;4.30;;;;;;;;;;5031785;28;20040;-72
2022/10/28 02:20:03;;;;;;;8.25;4.60;;;;;;;;;;5030449;28;20028;-72
2022/10/28 02:22:31;;;;;;;16.92;5.43;;;;;;;;;;5032412;28;20316;-72
2022/10/28 02:25:15;;;;;;;11.80;5.05;;;;;;;;;;5032890;28;20020;-73
2022/10/28 02:27:40;;;;;;;16.20;4.83;;;;;;;;;;5027820;28;20121;-73
2022/10/28 02:30:07;;;;;;;10.03;4.07;;;;;;;;;;5032717;28;20291;-72
2022/10/28 02:32:38;;;;;;;10.13;4.60;;;;;;;;;;5026616;28;20013;-72
2022/10/28 02:35:06;;;;;;;18.50;5.85;;;;;;;;;;5032657;28;20025;-72
2022/10/28 02:37:33;;;;;;;14.00;5.10;;;;;;;;;;5016308;28;20075;-73
2022/10/28 02:40:01;;;;;;;8.50;4.72;;;;;;;;;;5033109;28;20080;-73
2022/10/28 02:42:28;;;;;;;11.35;5.25;;;;;;;;;;5030752;28;20029;-73
2022/10/28 02:44:59;;;;;;;16.75;4.85;;;;;;;;;;5013698;28;20028;-74
2022/10/28 02:47:25;;;;;;;8.95;4.55;;;;;;;;;;5032030;28;20017;-73
2022/10/28 02:49:54;;;;;;;6.90;4.55;;;;;;;;;;5031633;28;20063;-74
2022/10/28 02:52:21;;;;;;;12.02;4.20;;;;;;;;;;5024058;28;20100;-74
2022/10/28 02:54:49;;;;;;;10.63;4.47;;;;;;;;;;5014170;28;20017;-74
2022/10/28 02:57:19;;;;;;;12.82;4.80;;;;;;;;;;5032416;28;20467;-74
2022/10/28 02:59:55;;;;;;;9.98;4.72;;;;;;;;;;5028714;28;20025;-74
2022/10/28 03:02:20;;;;;;;7.50;4.65;;;;;;;;;;5031768;28;20535;-74
2022/10/28 03:04:45;;;;;;;14.15;5.05;;;;;;;;;;5029353;28;20113;-74
2022/10/28 03:07:10;;;;;;;11.80;4.37;;;;;;;;;;5031827;28;20025;-74
2022/10/28 03:09:36;;;;;;;10.80;4.93;;;;;;;;;;5029854;28;20602;-74
2022/10/28 03:12:01;;;;;;;10.98;4.40;;;;;;;;;;5028530;28;21055;-74
2022/10/28 03:14:26;;;;;;;9.37;4.47;;;;;;;;;;5032480;28;20022;-74
2022/10/28 03:16:51;;;;;;;11.37;4.83;;;;;;;;;;5025885;28;20272;-74
2022/10/28 03:19:17;;;;;;;11.13;4.70;;;;;;;;;;5031860;28;20268;-73
2022/10/28 03:21:42;;;;;;;8.93;4.73;;;;;;;;;;5032437;28;20264;-73
2022/10/28 03:24:07;;;;;;;10.53;4.13;;;;;;;;;;5011981;28;20272;-72
2022/10/28 03:26:32;;;;;;;13.80;4.40;;;;;;;;;;5032194;28;20284;-72
2022/10/28 03:28:58;;;;;;;11.40;4.67;;;;;;;;;;5031731;28;20468;-72
2022/10/28 03:31:23;;;;;;;16.00;5.53;;;;;;;;;;5031843;28;20646;-72
2022/10/28 03:33:48;;;;;;;13.63;5.72;;;;;;;;;;5031991;28;20750;-73
2022/10/28 03:36:14;;;;;;;19.20;4.87;;;;;;;;;;5031944;28;20375;-72
2022/10/28 03:38:39;;;;;;;9.27;4.67;;;;;;;;;;5032077;28;20009;-72
2022/10/28 03:41:04;;;;;;;7.10;4.10;;;;;;;;;;5031760;28;20738;-72
2022/10/28 03:43:29;;;;;;;9.27;4.45;;;;;;;;;;5031625;28;20096;-72
2022/10/28 03:45:54;;;;;;;18.77;4.87;;;;;;;;;;5029345;28;20482;-73
2022/10/28 03:48:20;;;;;;;13.07;4.93;;;;;;;;;;5031709;28;20742;-74
2022/10/28 03:50:45;;;;;;;10.67;4.23;;;;;;;;;;5031950;28;20762;-74
2022/10/28 03:53:10;;;;;;;7.97;4.40;;;;;;;;;;5031406;28;20659;-74
2022/10/28 03:55:35;;;;;;;9.68;4.72;;;;;;;;;;5013926;28;20805;-74
2022/10/28 03:58:01;;;;;;;14.27;4.57;;;;;;;;;;5031856;28;20097;-73
2022/10/28 04:00:26;;;;;;;17.48;4.68;;;;;;;;;;5032333;28;20362;-74
2022/10/28 04:02:52;;;;;;;8.52;4.47;;;;;;;;;;5034530;28;20107;-73
2022/10/28 04:05:20;;;;;;;12.45;4.97;;;;;;;;;;5025458;28;20473;-74
2022/10/28 04:07:46;;;;;;;13.60;4.65;;;;;;;;;;5034835;28;20111;-75
2022/10/28 04:10:11;;;;;;;14.10;4.90;;;;;;;;;;5035044;28;20021;-75
2022/10/28 04:12:36;;;;;;;10.82;5.15;;;;;;;;;;5035438;28;20021;-75
2022/10/28 04:15:01;;;;;;;13.50;5.07;;;;;;;;;;5035231;28;20021;-75
2022/10/28 04:17:27;;;;;;;11.85;4.65;;;;;;;;;;5033873;28;20025;-75
2022/10/28 04:19:52;;;;;;;12.03;5.17;;;;;;;;;;5013292;28;20025;-76
2022/10/28 04:22:17;;;;;;;11.65;5.10;;;;;;;;;;5033607;28;20363;-76
2022/10/28 04:24:42;;;;;;;15.50;5.63;;;;;;;;;;5030844;28;20033;-75
2022/10/28 04:27:08;;;;;;;7.35;4.75;;;;;;;;;;5037802;28;20052;-75
2022/10/28 04:29:33;;;;;;;15.77;5.85;;;;;;;;;;5034372;28;20680;-75
2022/10/28 04:31:58;;;;;;;14.90;5.20;;;;;;;;;;5035017;28;20021;-73
2022/10/28 04:34:24;;;;;;;13.67;5.37;;;;;;;;;;5035222;28;20031;-73
2022/10/28 04:36:49;;;;;;;12.70;5.38;;;;;;;;;;5032397;28;20324;-73
2022/10/28 04:39:14;;;;;;;9.97;5.53;;;;;;;;;;5035150;28;20014;-74
2022/10/28 04:41:39;;;;;;;14.35;5.15;;;;;;;;;;5041267;28;20964;-74
2022/10/28 04:44:05;;;;;;;12.30;5.03;;;;;;;;;;5027593;28;20472;-76
2022/10/28 04:46:30;;;;;;;8.60;4.40;;;;;;;;;;5034870;28;20705;-77
2022/10/28 04:48:55;;;;;;;7.67;4.80;;;;;;;;;;5034222;28;20673;-76
2022/10/28 04:51:20;;;;;;;11.40;4.57;;;;;;;;;;5034860;28;20252;-76
2022/10/28 04:53:45;;;;;;;10.67;4.93;;;;;;;;;;5034648;28;20823;-76
2022/10/28 04:56:11;;;;;;;10.67;4.63;;;;;;;;;;5034335;28;20300;-76
2022/10/28 04:58:36;;;;;;;18.95;5.80;;;;;;;;;;5029180;28;20351;-76
2022/10/28 05:01:05;;;;;;;12.33;4.90;;;;;;;;;;5034280;28;20014;-76
2022/10/28 05:03:30;;;;;;;9.93;5.10;;;;;;;;;;5031648;28;20270;-73
2022/10/28 05:05:56;;;;;;;13.30;5.43;;;;;;;;;;5034091;28;20097;-73
2022/10/28 05:08:21;;;;;;;18.43;5.50;;;;;;;;;;5015055;28;20307;-73
2022/10/28 05:10:48;;;;;;;8.40;4.67;;;;;;;;;;5033623;28;20260;-72
2022/10/28 05:13:14;;;;;;;8.18;3.97;;;;;;;;;;5033754;28;20322;-72
2022/10/28 05:15:39;;;;;;;13.47;5.63;;;;;;;;;;5034159;28;20022;-72
2022/10/28 05:18:04;;;;;;;11.30;6.10;;;;;;;;;;5028058;28;20276;-73
2022/10/28 05:20:29;;;;;;;14.13;4.95;;;;;;;;;;5034022;28;20296;-72
2022/10/28 05:22:55;;;;;;;17.53;6.33;;;;;;;;;;5033744;28;20074;-73
2022/10/28 05:25:21;;;;;;;18.95;6.20;;;;;;;;;;5019123;28;20280;-73
2022/10/28 05:27:46;;;;;;;11.05;4.90;;;;;;;;;;5033916;28;20025;-73
2022/10/28 05:30:12;;;;;;;9.45;4.90;;;;;;;;;;5010758;28;20018;-73
2022/10/28 05:32:37;;;;;;;13.82;5.60;;;;;;;;;;5032316;28;20017;-73
2022/10/28 05:35:02;;;;;;;15.27;5.87;;;;;;;;;;5033417;28;20034;-73
2022/10/28 05:37:28;;;;;;;7.82;4.80;;;;;;;;;;5032833;28;20271;-73
2022/10/28 05:39:53;;;;;;;9.98;4.95;;;;;;;;;;5033131;28;20013;-73
2022/10/28 05:42:18;;;;;;;12.03;5.37;;;;;;;;;;5033617;28;20022;-73
2022/10/28 05:44:43;;;;;;;13.07;5.83;;;;;;;;;;5032468;28;20287;-72
2022/10/28 05:47:09;;;;;;;12.40;5.73;;;;;;;;;;5026836;28;20294;-73
2022/10/28 05:49:34;;;;;;;12.85;5.45;;;;;;;;;;5033016;28;20272;-72
2022/10/28 05:51:59;;;;;;;11.57;5.82;;;;;;;;;;5032890;28;20486;-73
2022/10/28 05:54:25;;;;;;;12.97;5.37;;;;;;;;;;5032429;28;20033;-73
2022/10/28 05:56:50;;;;;;;15.35;6.10;;;;;;;;;;5032862;28;20346;-73
2022/10/28 05:59:15;;;;;;;10.27;5.30;;;;;;;;;;5030710;28;20025;-67
2022/10/28 06:01:40;;;;;;;10.90;5.47;;;;;;;;;;5033445;28;20746;-73
2022/10/28 06:04:06;;;;;;;11.10;5.73;;;;;;;;;;5031357;28;20291;-73
2022/10/28 06:06:31;;;;;;;10.33;5.57;;;;;;;;;;5037630;28;20761;-73
2022/10/28 06:08:56;;;;;;;11.15;5.90;;;;;;;;;;5032570;28;20646;-73
2022/10/28 06:11:22;;;;;;;11.65;5.93;;;;;;;;;;5029199;28;20030;-73
2022/10/28 06:13:47;;;;;;;10.88;5.63;;;;;;;;;;5030407;28;20021;-73
2022/10/28 06:16:12;;;;;;;10.63;6.20;;;;;;;;;;5032985;28;20060;-73
2022/10/28 06:18:37;;;;;;;16.07;6.23;;;;;;;;;;5031547;28;20398;-73
2022/10/28 06:21:02;;;;;;;13.13;6.13;;;;;;;;;;5031775;28;20276;-73
2022/10/28 06:23:28;;;;;;;10.63;5.78;;;;;;;;;;5031821;28;20355;-74
2022/10/28 06:25:57;;;;;;;10.52;5.82;;;;;;;;;;5031960;28;20110;-74
2022/10/28 06:28:22;;;;;;;10.50;6.65;;;;;;;;;;5033283;28;20020;-74
2022/10/28 06:30:47;;;;;;;8.23;4.95;;;;;;;;;;5032198;28;20021;-74
2022/10/28 06:33:12;;;;;;;9.50;4.93;;;;;;;;;;5017374;28;20022;-73
2022/10/28 06:35:38;;;;;;;23.05;5.68;;;;;;;;;;4992680;28;20296;-73
2022/10/28 06:38:03;;;;;;;10.13;5.40;;;;;;;;;;4998724;28;20056;-74
2022/10/28 06:40:28;;;;;;;16.38;6.15;;;;;;;;;;5026485;28;20030;-73
2022/10/28 06:43:00;;;;;;;11.93;5.82;;;;;;;;;;5031553;28;20021;-73
2022/10/28 06:45:26;;;;;;;13.23;5.20;;;;;;;;;;5032334;28;20018;-73
2022/10/28 06:47:55;;;;;;;8.25;4.70;;;;;;;;;;5025024;28;20021;-73
2022/10/28 06:50:20;;;;;;;19.38;5.88;;;;;;;;;;5029329;28;20095;-73
2022/10/28 06:52:46;;;;;;;13.32;6.70;;;;;;;;;;5031521;28;20029;-73
2022/10/28 06:55:11;;;;;;;10.60;6.03;;;;;;;;;;5030638;28;20098;-73
2022/10/28 06:57:36;;;;;;;17.53;6.57;;;;;;;;;;5032073;28;20310;-73
2022/10/28 07:00:02;;;;;;;14.07;6.10;;;;;;;;;;5026302;28;20283;-73
2022/10/28 07:02:27;;;;;;;15.75;5.55;;;;;;;;;;5031816;28;20018;-73
2022/10/28 07:04:52;;;;;;;17.13;5.60;;;;;;;;;;5031729;28;20151;-73
2022/10/28 07:07:18;;;;;;;15.20;5.47;;;;;;;;;;5031419;28;20276;-73
2022/10/28 07:09:43;;;;;;;9.98;5.20;;;;;;;;;;5031936;28;20014;-73
2022/10/28 07:12:09;;;;;;;13.30;5.55;;;;;;;;;;5032193;28;20104;-73
2022/10/28 07:14:34;;;;;;;16.70;6.30;;;;;;;;;;5031499;28;20023;-73
2022/10/28 07:16:59;;;;;;;12.48;5.47;;;;;;;;;;5032228;28;20056;-73
2022/10/28 07:19:25;;;;;;;13.45;6.20;;;;;;;;;;5031054;28;20029;-73
2022/10/28 07:21:50;;;;;;;11.93;5.33;;;;;;;;;;5027467;28;20028;-73
2022/10/28 07:24:15;;;;;;;10.43;5.40;;;;;;;;;;5030104;28;20296;-73
2022/10/28 07:26:40;;;;;;;16.55;5.60;;;;;;;;;;5030882;28;20326;-73
2022/10/28 07:29:05;;;;;;;12.43;6.00;;;;;;;;;;5031440;28;20018;-73
2022/10/28 07:31:31;;;;;;;17.17;6.40;;;;;;;;;;5028317;28;20268;-74
2022/10/28 07:33:56;;;;;;;18.67;5.47;;;;;;;;;;5030006;28;20268;-73
2022/10/28 07:36:21;;;;;;;9.70;5.47;;;;;;;;;;5030449;28;20268;-73
2022/10/28 07:38:50;;;;;;;17.47;6.17;;;;;;;;;;5030447;28;20283;-73
2022/10/28 07:41:16;;;;;;;12.60;6.65;;;;;;;;;;5030976;28;20322;-73
2022/10/28 07:43:41;;;;;;;12.93;5.38;;;;;;;;;;5028659;28;20018;-73
2022/10/28 07:46:06;;;;;;;13.65;5.75;;;;;;;;;;5019412;28;20109;-73
2022/10/28 07:48:32;;;;;;;18.95;5.38;;;;;;;;;;5029825;28;20084;-73
2022/10/28 07:51:01;;;;;;;9.52;5.65;;;;;;;;;;5030201;28;20075;-73
2022/10/28 07:53:26;;;;;;;15.63;6.30;;;;;;;;;;5031558;28;20022;-73
2022/10/28 07:55:56;;;;;;;11.30;5.43;;;;;;;;;;5032059;28;20503;-73
2022/10/28 07:58:21;;;;;;;13.13;5.22;;;;;;;;;;5031261;28;20383;-73
2022/10/28 08:00:47;;;;;;;12.00;5.60;;;;;;;;;;5032124;28;20021;-73
2022/10/28 08:03:12;;;;;;;17.58;5.38;;;;;;;;;;5025202;28;20025;-73
2022/10/28 08:05:37;;;;;;;12.47;5.70;;;;;;;;;;5001121;28;20029;-72
2022/10/28 08:08:03;;;;;;;17.10;6.17;;;;;;;;;;5006256;28;20029;-72
2022/10/28 08:10:28;;;;;;;14.10;6.20;;;;;;;;;;5006647;28;20307;-73
2022/10/28 08:12:55;;;;;;;8.63;5.03;;;;;;;;;;5005094;28;20028;-73
2022/10/28 08:15:22;;;;;;;9.90;5.22;;;;;;;;;;5004949;28;20056;-73
2022/10/28 08:17:51;;;;;;;11.90;6.50;;;;;;;;;;5002715;28;20033;-72
2022/10/28 08:20:16;;;;;;;19.88;5.28;;;;;;;;;;5003079;28;20021;-72
2022/10/28 08:22:41;;;;;;;16.00;6.22;;;;;;;;;;5002543;28;20045;-72
2022/10/28 08:25:07;;;;;;;17.00;6.45;;;;;;;;;;4998524;28;20079;-73
2022/10/28 08:27:32;;;;;;;14.50;5.47;;;;;;;;;;5001980;28;20864;-73
2022/10/28 08:29:58;;;;;;;14.20;5.40;;;;;;;;;;4999320;28;20125;-73
2022/10/28 08:32:23;;;;;;;12.43;5.60;;;;;;;;;;4970232;28;20269;-73
2022/10/28 08:34:48;;;;;;;15.57;5.77;;;;;;;;;;5004653;28;20286;-73
2022/10/28 08:37:15;;;;;;;14.23;5.80;;;;;;;;;;5004609;28;20264;-74
2022/10/28 08:39:40;;;;;;;12.45;5.47;;;;;;;;;;5002923;28;20295;-74
2022/10/28 08:42:21;;;;;;;12.37;5.57;;;;;;;;;;5001959;28;20025;-73
2022/10/28 08:44:55;;;;;;;11.75;4.60;;;;;;;;;;5003499;28;20272;-76
2022/10/28 08:47:39;;;;;;;13.57;6.35;;;;;;;;;;5014273;28;20022;-73
2022/10/28 08:50:10;;;;;;;11.60;5.13;;;;;;;;;;5009832;28;20044;-73
2022/10/28 08:52:48;;;;;;;11.73;5.32;;;;;;;;;;5009061;28;20045;-73
2022/10/28 08:55:13;;;;;;;12.23;5.90;;;;;;;;;;5005021;28;20087;-74
2022/10/28 08:57:57;;;;;;;17.33;4.97;;;;;;;;;;5008144;28;20048;-73
2022/10/28 09:00:27;;;;;;;26.30;6.25;;;;;;;;;;5012033;28;20029;-74
2022/10/28 09:02:52;;;;;;;17.25;5.47;;;;;;;;;;5013165;28;20800;-73
2022/10/28 09:05:17;;;;;;;11.23;5.43;;;;;;;;;;5007498;28;20029;-73
2022/10/28 09:07:42;;;;;;;18.60;6.22;;;;;;;;;;5004790;28;20702;-73
2022/10/28 09:10:09;;;;;;;15.20;5.60;;;;;;;;;;5006611;28;20104;-73
2022/10/28 09:12:37;;;;;;;14.75;5.32;;;;;;;;;;5002631;28;21155;-73
2022/10/28 09:15:16;;;;;;;14.63;5.57;;;;;;;;;;5009245;28;20021;-74
2022/10/28 09:17:54;;;;;;;10.77;4.97;;;;;;;;;;5010231;28;20040;-73
2022/10/28 09:20:22;;;;;;;11.80;5.05;;;;;;;;;;5009389;28;20018;-73
2022/10/28 09:22:47;;;;;;;10.02;5.20;;;;;;;;;;5010213;28;20220;-75
2022/10/28 09:25:15;;;;;;;12.15;5.55;;;;;;;;;;5008043;28;20843;-73
2022/10/28 09:28:01;;;;;;;10.93;4.78;;;;;;;;;;5009171;28;20021;-70
2022/10/28 09:30:32;;;;;;;13.82;5.45;;;;;;;;;;5003604;28;20832;-74
2022/10/28 09:32:57;;;;;;;25.52;6.07;;;;;;;;;;5000809;28;20854;-74
2022/10/28 09:35:24;;;;;;;12.30;5.30;;;;;;;;;;4994631;28;20028;-73
2022/10/28 09:37:53;;;;;;;12.57;4.97;;;;;;;;;;4996386;28;21137;-73
2022/10/28 09:40:24;;;;;;;15.75;5.63;;;;;;;;;;4994176;28;20853;-73
2022/10/28 09:43:08;;;;;;;16.42;5.47;;;;;;;;;;5005881;28;20025;-73
2022/10/28 09:45:36;;;;;;;12.07;5.72;;;;;;;;;;5014088;28;20876;-73
2022/10/28 09:48:09;;;;;;;18.85;5.53;;;;;;;;;;5009213;28;20018;-73
2022/10/28 09:50:34;;;;;;;17.70;6.17;;;;;;;;;;5014173;28;20373;-73
2022/10/28 09:53:02;;;;;;;17.57;5.17;;;;;;;;;;5010238;28;20025;-73
2022/10/28 09:55:28;;;;;;;20.30;5.82;;;;;;;;;;5005753;28;20675;-72
2022/10/28 09:57:53;;;;;;;11.35;5.32;;;;;;;;;;4991683;28;20119;-72
2022/10/28 10:00:19;;;;;;;12.77;5.30;;;;;;;;;;5008680;28;20132;-73
2022/10/28 10:02:44;;;;;;;15.55;4.95;;;;;;;;;;5011353;28;20411;-73
2022/10/28 10:05:13;;;;;;;13.80;5.45;;;;;;;;;;5012114;28;20026;-72
2022/10/28 10:07:42;;;;;;;13.32;5.68;;;;;;;;;;5013417;28;20030;-72
2022/10/28 10:10:15;;;;;;;11.48;5.40;;;;;;;;;;5012745;28;20052;-72
2022/10/28 10:12:41;;;;;;;11.73;5.50;;;;;;;;;;5010472;28;20025;-73
2022/10/28 10:15:10;;;;;;;15.20;5.43;;;;;;;;;;5009366;28;20025;-73
2022/10/28 10:17:40;;;;;;;17.10;5.38;;;;;;;;;;5009747;28;20032;-74
2022/10/28 10:20:16;;;;;;;12.20;5.20;;;;;;;;;;5012046;28;20083;-74
2022/10/28 10:22:42;;;;;;;14.35;6.07;;;;;;;;;;5007286;28;20025;-73
2022/10/28 10:25:16;;;;;;;13.90;5.10;;;;;;;;;;5009088;28;20029;-74
2022/10/28 10:27:41;;;;;;;;;;;;;;;;;;5008472;28;20021;-73
2022/10/28 10:30:13;;;;;;;13.82;5.35;;;;;;;;;;5011548;28;19916;-73
2022/10/28 10:32:38;;;;;;;11.07;5.18;;;;;;;;;;5012701;28;20022;-72
2022/10/28 10:35:12;;;;;;;17.17;5.73;;;;;;;;;;5013567;28;20029;-72
2022/10/28 10:37:41;;;;;;;15.70;4.57;;;;;;;;;;5014330;28;20278;-72
2022/10/28 10:40:06;;;;;;;13.77;5.10;;;;;;;;;;5012200;28;20028;-72
2022/10/28 10:42:32;;;;;;;11.60;5.13;;;;;;;;;;5013637;28;20025;-74
2022/10/28 10:44:59;;;;;;;21.15;5.13;;;;;;;;;;5014567;28;20021;-73
2022/10/28 10:47:25;;;;;;;11.18;4.35;;;;;;;;;;5015928;28;20017;-74
2022/10/28 10:49:50;;;;;;;11.13;4.85;;;;;;;;;;5011490;28;20021;-73
2022/10/28 10:52:21;;;;;;;12.70;5.13;;;;;;;;;;5010522;28;20017;-73
2022/10/28 10:55:16;;;;;;;19.13;5.30;;;;;;;;;;5003103;28;20220;-74
2022/10/28 10:57:44;;;;;;;14.90;4.82;;;;;;;;;;4956174;28;20134;-73
2022/10/28 11:00:14;;;;;;;14.75;5.15;;;;;;;;;;5010761;28;20017;-73
2022/10/28 11:02:43;;;;;;;20.77;5.47;;;;;;;;;;5012689;28;20068;-73
2022/10/28 11:05:09;;;;;;;11.73;5.38;;;;;;;;;;5014194;28;20142;-73
2022/10/28 11:07:35;;;;;;;20.05;6.32;;;;;;;;;;4995720;28;20543;-73
2022/10/28 11:10:00;;;;;;;14.32;4.80;;;;;;;;;;5012320;28;20056;-73
2022/10/28 11:12:30;;;;;;;15.68;5.78;;;;;;;;;;5010709;28;20013;-73
2022/10/28 11:15:00;;;;;;;12.30;5.60;;;;;;;;;;5013190;28;20075;-72
2022/10/28 11:17:29;;;;;;;14.00;5.10;;;;;;;;;;5011316;28;20052;-73
2022/10/28 11:19:56;;;;;;;13.70;4.82;;;;;;;;;;5012020;28;20021;-73
2022/10/28 11:22:36;;;;;;;17.35;5.30;;;;;;;;;;5012598;28;20020;-73
2022/10/28 11:25:19;;;;;;;18.13;5.80;;;;;;;;;;4995980;28;20436;-73
2022/10/28 11:28:03;;;;;;;10.25;5.10;;;;;;;;;;5012475;28;20017;-73
2022/10/28 11:30:53;;;;;;;17.85;5.75;;;;;;;;;;5013491;28;20088;-73
2022/10/28 11:33:21;;;;;;;12.65;5.65;;;;;;;;;;5013888;28;20018;-74
2022/10/28 11:35:52;;;;;;;15.18;5.72;;;;;;;;;;5013890;28;20036;-73
2022/10/28 11:38:36;;;;;;;22.70;5.80;;;;;;;;;;5014397;28;20025;-73
2022/10/28 11:41:09;;;;;;;16.38;5.07;;;;;;;;;;5010406;28;20057;-74
2022/10/28 11:43:54;;;;;;;16.07;5.70;;;;;;;;;;5002910;28;20025;-73
2022/10/28 11:46:38;;;;;;;12.68;5.18;;;;;;;;;;5014995;28;20284;-73
2022/10/28 11:49:06;;;;;;;20.30;5.97;;;;;;;;;;5016122;28;20026;-74
2022/10/28 11:51:31;;;;;;;12.82;5.00;;;;;;;;;;5014489;28;20083;-72
2022/10/28 11:54:07;;;;;;;20.07;5.07;;;;;;;;;;5016178;28;20033;-72
2022/10/28 11:56:36;;;;;;;13.45;4.80;;;;;;;;;;5013267;28;20075;-71
2022/10/28 11:59:04;;;;;;;10.18;4.63;;;;;;;;;;5016264;28;20092;-73
2022/10/28 12:01:48;;;;;;;15.85;5.60;;;;;;;;;;5023749;28;20049;-73
2022/10/28 12:04:13;;;;;;;13.48;5.45;;;;;;;;;;5023240;28;20104;-73
2022/10/28 12:06:47;;;;;;;14.90;5.40;;;;;;;;;;5028092;28;20116;-73
2022/10/28 12:09:12;;;;;;;;;;;;;;;;;;5026853;28;20271;-73
2022/10/28 12:11:51;;;;;;;15.97;6.30;;;;;;;;;;5030119;28;20333;-74
2022/10/28 12:14:26;;;;;;;13.32;5.20;;;;;;;;;;5029050;28;20014;-72
2022/10/28 12:17:05;;;;;;;18.38;5.63;;;;;;;;;;5030337;28;20017;-73
2022/10/28 12:19:30;;;;;;;20.55;5.38;;;;;;;;;;5030101;28;20028;-74
2022/10/28 12:22:25;;;;;;;24.87;5.50;;;;;;;;;;5029314;28;20025;-73
2022/10/28 12:24:50;;;;;;;17.52;5.50;;;;;;;;;;5005176;28;20112;-73
2022/10/28 12:27:20;;;;;;;16.45;6.07;;;;;;;;;;5034303;28;20101;-73
2022/10/28 12:29:47;;;;;;;19.95;5.72;;;;;;;;;;5028709;28;20487;-73
2022/10/28 12:32:17;;;;;;;17.02;5.90;;;;;;;;;;5033264;28;20816;-73
2022/10/28 12:34:44;;;;;;;17.98;6.13;;;;;;;;;;5034029;28;20012;-73
2022/10/28 12:37:15;;;;;;;13.23;5.47;;;;;;;;;;5034649;28;20029;-73
2022/10/28 12:39:44;;;;;;;18.25;5.80;;;;;;;;;;5034750;28;20021;-73
2022/10/28 12:42:27;;;;;;;13.90;5.20;;;;;;;;;;5016723;28;20057;-74
2022/10/28 12:44:55;;;;;;;16.07;4.77;;;;;;;;;;5020780;28;20017;-72
2022/10/28 12:47:25;;;;;;;19.33;5.68;;;;;;;;;;5031671;28;20348;-72
2022/10/28 12:50:13;;;;;;;17.20;6.40;;;;;;;;;;5033314;28;20097;-72
2022/10/28 12:52:57;;;;;;;20.67;6.32;;;;;;;;;;5034003;28;20033;-74
2022/10/28 12:55:25;;;;;;;15.88;5.50;;;;;;;;;;5020451;28;20025;-73
2022/10/28 12:57:54;;;;;;;21.05;6.32;;;;;;;;;;5031039;28;20179;-72
2022/10/28 13:00:24;;;;;;;12.88;4.88;;;;;;;;;;5033828;28;20021;-72
2022/10/28 13:02:54;;;;;;;12.50;5.28;;;;;;;;;;5034323;28;20482;-72
2022/10/28 13:05:23;;;;;;;16.35;6.38;;;;;;;;;;5034021;28;20565;-72
2022/10/28 13:08:06;;;;;;;20.52;5.68;;;;;;;;;;5033581;28;20072;-71
2022/10/28 13:10:41;;;;;;;19.80;6.85;;;;;;;;;;5016086;28;20013;-72
2022/10/28 13:13:13;;;;;;;18.40;4.93;;;;;;;;;;5033858;28;20391;-72
2022/10/28 13:15:49;;;;;;;17.48;6.15;;;;;;;;;;5033666;28;20052;-71
2022/10/28 13:18:36;;;;;;;21.27;5.28;;;;;;;;;;5033162;28;20475;-71
2022/10/28 13:21:08;;;;;;;19.55;5.30;;;;;;;;;;5032513;28;20021;-72
2022/10/28 13:23:42;;;;;;;15.73;6.15;;;;;;;;;;5031647;28;20025;-71
2022/10/28 13:26:07;;;;;;;;;;;;;;;;;;5033899;28;20039;-71
2022/10/28 13:28:34;;;;;;;13.88;5.07;;;;;;;;;;5033803;28;20007;-72
2022/10/28 13:31:00;;;;;;;17.02;6.00;;;;;;;;;;5033076;28;20882;-71
2022/10/28 13:33:27;;;;;;;14.40;5.82;;;;;;;;;;5030898;28;20044;-71
2022/10/28 13:35:54;;;;;;;12.30;5.05;;;;;;;;;;5032206;28;20021;-71
2022/10/28 13:38:21;;;;;;;12.45;5.68;;;;;;;;;;5032875;28;20028;-71
2022/10/28 13:40:58;;;;;;;16.33;5.82;;;;;;;;;;5031336;28;20025;-71
2022/10/28 13:43:42;;;;;;;13.90;5.22;;;;;;;;;;5025895;28;20048;-72
2022/10/28 13:46:07;;;;;;;10.50;5.03;;;;;;;;;;5030322;28;20014;-71
2022/10/28 13:48:42;;;;;;;9.32;5.18;;;;;;;;;;5031022;28;20800;-72
2022/10/28 13:51:10;;;;;;;21.30;5.93;;;;;;;;;;5032411;28;20067;-72
2022/10/28 13:54:01;;;;;;;13.60;5.70;;;;;;;;;;5032775;28;20049;-71
2022/10/28 13:56:29;;;;;;;12.43;5.53;;;;;;;;;;5017243;28;20037;-71
2022/10/28 13:58:57;;;;;;;15.93;5.45;;;;;;;;;;5033149;28;20029;-71
2022/10/28 14:01:34;;;;;;;16.50;5.90;;;;;;;;;;5031943;28;20029;-71
2022/10/28 14:04:00;;;;;;;14.80;6.22;;;;;;;;;;5024297;28;20121;-72
2022/10/28 14:06:33;;;;;;;17.40;6.00;;;;;;;;;;5028107;28;20100;-72
2022/10/28 14:08:58;;;;;;;15.25;6.07;;;;;;;;;;5027324;28;20020;-71
2022/10/28 14:11:27;;;;;;;16.75;5.75;;;;;;;;;;5032321;28;20014;-73
2022/10/28 14:13:54;;;;;;;17.77;6.80;;;;;;;;;;5032562;28;20045;-73
2022/10/28 14:16:26;;;;;;;15.88;5.88;;;;;;;;;;5031994;28;20037;-71
2022/10/28 14:18:53;;;;;;;15.65;5.40;;;;;;;;;;5032403;28;20022;-71
2022/10/28 14:21:19;;;;;;;15.73;5.80;;;;;;;;;;5026382;28;20092;-72
2022/10/28 14:23:44;;;;;;;12.13;6.07;;;;;;;;;;5022801;28;20423;-71
2022/10/28 14:26:09;;;;;;;12.13;6.10;;;;;;;;;;5028131;28;20455;-73
2022/10/28 14:28:34;;;;;;;16.77;6.10;;;;;;;;;;5027801;28;20017;-72
2022/10/28 14:31:13;;;;;;;14.17;5.43;;;;;;;;;;5014786;28;20049;-72
2022/10/28 14:33:41;;;;;;;13.07;4.95;;;;;;;;;;5030213;28;20026;-71
2022/10/28 14:36:06;;;;;;;14.45;6.15;;;;;;;;;;5032277;28;20022;-71
2022/10/28 14:38:55;;;;;;;11.43;5.43;;;;;;;;;;5032131;28;20031;-72
2022/10/28 14:41:32;;;;;;;10.75;5.15;;;;;;;;;;5023265;28;20056;-71